Terminal Aerodrome Forecast
Issued by NWS

Home | Current Version | Previous Version | Text Only | Print | Product List | Glossary Off
Versions: 1 2 3 4 5 6 7 8 9 10 11 12 13 14 15 16 17

307
FTUS43 KICT 110901 AAA
TAFSLN
TAF AMD
KSLN 110901Z 1109/1206 01008KT P6SM SKC
     FM111000 01008KT P6SM BKN008
     FM111600 05006KT P6SM SCT008 BKN015
     FM111800 VRB05KT P6SM SCT020
     FM112000 19005KT P6SM SCT250
     FM120400 31012KT P6SM SCT250=

USA.gov is the U.S. government's official web portal to all federal, state and local government web resources and services.